Time;durP1;ratioP1;P1;durP2;ratioP2;P2;SDS_P1;SDS_P2;PMS_P1;PMS_P2;Temp;Humidity;BMP_temperature;BMP_pressure;BME280_temperature;BME280_humidity;BME280_pressure;Samples;Min_cycle;Max_cycle;Signal;HPM_P1;HPM_P2
2022/02/27 00:00:02;;;;;;;20.02;5.40;;;3.10;99.90;;;;;;4785158;30;20105;-78
2022/02/27 00:02:36;;;;;;;20.13;5.60;;;3.20;99.90;;;;;;4763031;30;20051;-78
2022/02/27 00:05:38;;;;;;;19.70;5.60;;;3.50;99.90;;;;;;4802075;29;20145;-78
2022/02/27 00:08:19;;;;;;;17.00;6.00;;;3.50;99.90;;;;;;4786576;29;21738;-78
2022/02/27 00:11:50;;;;;;;;;;;;;;;;;;;;;
2022/02/27 00:15:04;;;;;;;19.95;6.10;;;2.70;99.90;;;;;;4785804;29;20050;-78
2022/02/27 00:18:07;;;;;;;18.00;5.95;;;2.60;99.90;;;;;;4806897;29;20124;-78
2022/02/27 00:21:18;;;;;;;;;;;;;;;;;;;;;
2022/02/27 00:24:10;;;;;;;17.60;5.88;;;3.50;99.90;;;;;;4767293;30;20636;-78
2022/02/27 00:30:37;;;;;;;20.80;6.22;;;3.10;99.90;;;;;;4739293;30;20052;-77
2022/02/27 00:33:15;;;;;;;20.50;5.53;;;3.40;99.90;;;;;;4752374;30;20120;-77
2022/02/27 00:35:44;;;;;;;20.92;6.38;;;3.90;99.90;;;;;;4751651;30;20064;-77
2022/02/27 00:38:15;;;;;;;27.83;9.32;;;3.70;99.90;;;;;;4752790;30;20067;-77
2022/02/27 00:41:02;;;;;;;27.15;9.30;;;2.90;99.90;;;;;;4752051;30;20514;-77
2022/02/27 00:43:33;;;;;;;24.05;8.35;;;2.90;99.90;;;;;;4751441;30;20087;-77
2022/02/27 00:46:17;;;;;;;26.35;7.55;;;3.00;99.90;;;;;;4752364;30;20096;-77
2022/02/27 00:48:53;;;;;;;14.45;5.85;;;3.00;99.90;;;;;;4766076;30;20139;-77
2022/02/27 00:51:22;;;;;;;20.80;6.05;;;3.00;99.90;;;;;;4760727;30;20054;-77
2022/02/27 00:53:50;;;;;;;23.58;5.95;;;3.00;99.90;;;;;;4773001;30;20122;-77
2022/02/27 00:56:26;;;;;;;;;;;;;;;;;;;;;
2022/02/27 00:58:54;;;;;;;20.75;5.65;;;2.90;99.90;;;;;;4808570;29;20050;-77
2022/02/27 01:01:24;;;;;;;17.50;5.40;;;2.90;99.90;;;;;;4807951;29;20050;-77
2022/02/27 01:03:49;;;;;;;18.27;5.40;;;3.00;99.90;;;;;;4793887;29;20050;-77
2022/02/27 01:06:20;;;;;;;14.25;5.35;;;2.90;99.90;;;;;;4824005;29;20090;-76
2022/02/27 01:08:50;;;;;;;26.10;6.13;;;2.90;99.90;;;;;;4808614;29;20061;-77
2022/02/27 01:11:25;;;;;;;27.27;6.20;;;3.70;99.90;;;;;;4793595;29;20114;-77
2022/02/27 01:13:53;;;;;;;20.13;5.45;;;3.50;99.90;;;;;;4793103;29;20062;-77
2022/02/27 01:16:33;;;;;;;21.48;5.53;;;3.40;99.90;;;;;;4806331;29;20125;-77
2022/02/27 01:19:07;;;;;;;18.17;5.00;;;2.80;99.90;;;;;;4822498;29;20049;-77
2022/02/27 01:21:47;;;;;;;22.48;6.45;;;2.80;99.90;;;;;;4813573;29;20052;-77
2022/02/27 01:24:28;;;;;;;29.45;6.75;;;3.70;99.90;;;;;;4844294;29;20510;-77
2022/02/27 01:26:56;;;;;;;27.10;7.65;;;3.00;99.90;;;;;;4799413;29;20046;-77
2022/02/27 01:29:25;;;;;;;24.88;7.57;;;2.80;99.90;;;;;;4827465;29;20387;-77
2022/02/27 01:32:10;;;;;;;23.30;6.78;;;2.70;99.90;;;;;;4806766;29;20086;-77
2022/02/27 01:34:47;;;;;;;23.48;7.63;;;3.00;99.90;;;;;;4809144;29;20058;-76
2022/02/27 01:37:13;;;;;;;22.08;6.53;;;2.70;99.90;;;;;;4807790;29;20096;-77
2022/02/27 01:40:11;;;;;;;27.10;6.90;;;2.90;99.90;;;;;;4807976;29;20274;-77
2022/02/27 01:43:17;;;;;;;22.75;5.82;;;3.00;99.90;;;;;;4810805;29;20050;-77
2022/02/27 01:47:09;;;;;;;;;;;;;;;;;;;;;
2022/02/27 01:53:00;;;;;;;24.13;6.93;;;2.50;99.90;;;;;;4786050;29;20097;-78
2022/02/27 01:55:38;;;;;;;24.67;7.28;;;2.60;99.90;;;;;;4785322;29;20051;-78
2022/02/27 01:58:14;;;;;;;28.27;7.32;;;3.20;99.90;;;;;;4772004;30;20043;-79
2022/02/27 02:00:40;;;;;;;30.20;7.68;;;2.30;99.90;;;;;;4802720;29;20511;-77
2022/02/27 02:03:08;;;;;;;20.58;7.05;;;2.80;99.90;;;;;;4789930;29;20054;-76
2022/02/27 02:05:34;;;;;;;22.55;7.97;;;3.00;99.90;;;;;;4789394;29;20512;-76
2022/02/27 02:08:00;;;;;;;20.58;7.40;;;3.30;99.90;;;;;;4771642;29;20058;-76
2022/02/27 02:10:26;;;;;;;25.40;7.82;;;3.50;99.90;;;;;;4797808;29;20491;-76
2022/02/27 02:12:53;;;;;;;22.58;6.57;;;2.70;99.90;;;;;;4756432;30;20051;-76
2022/02/27 02:15:22;;;;;;;17.95;6.10;;;3.70;99.90;;;;;;4771889;30;20138;-76
2022/02/27 02:17:55;;;;;;;22.70;6.38;;;2.70;99.90;;;;;;4806192;29;20051;-76
2022/02/27 02:20:21;;;;;;;20.00;6.38;;;2.70;99.90;;;;;;4809567;29;20066;-76
2022/02/27 02:22:47;;;;;;;26.52;7.78;;;3.50;99.90;;;;;;4808444;29;20057;-77
2022/02/27 02:25:13;;;;;;;23.55;8.45;;;3.70;99.90;;;;;;4801185;29;20045;-77
2022/02/27 02:27:39;;;;;;;29.10;9.48;;;2.60;99.90;;;;;;4840946;29;20114;-77
2022/02/27 02:30:11;;;;;;;26.98;10.43;;;2.60;99.90;;;;;;4834479;29;20454;-77
2022/02/27 02:32:53;;;;;;;29.33;10.15;;;2.60;99.90;;;;;;4793357;29;20491;-77
2022/02/27 02:35:28;;;;;;;27.05;10.20;;;3.00;99.90;;;;;;4808258;29;20054;-77
2022/02/27 02:38:27;;;;;;;23.98;9.70;;;2.60;99.90;;;;;;4808347;29;20039;-78
2022/02/27 02:41:35;;;;;;;21.95;8.73;;;2.60;99.90;;;;;;4794828;29;20129;-78
2022/02/27 02:44:27;;;;;;;24.52;8.25;;;2.60;99.90;;;;;;4792828;29;20051;-78
2022/02/27 02:47:17;;;;;;;24.38;9.63;;;2.80;99.90;;;;;;4807984;29;20082;-78
2022/02/27 02:50:00;;;;;;;28.08;10.80;;;2.20;99.90;;;;;;4826506;29;20132;-78
2022/02/27 02:52:48;;;;;;;33.55;13.32;;;2.50;99.90;;;;;;4795363;29;20050;-78
2022/02/27 02:55:56;;;;;;;34.28;12.70;;;2.50;99.90;;;;;;4826224;29;20058;-78
2022/02/27 03:08:02;;;;;;;31.27;11.65;;;2.50;99.90;;;;;;4821318;29;20546;-77
2022/02/27 03:10:33;;;;;;;27.15;10.35;;;2.00;99.90;;;;;;4808116;29;20054;-77
2022/02/27 03:13:02;;;;;;;20.52;10.30;;;3.00;99.90;;;;;;4809776;29;20104;-77
2022/02/27 03:15:28;;;;;;;29.48;10.05;;;2.50;99.90;;;;;;4829096;29;20452;-77
2022/02/27 03:18:23;;;;;;;19.27;7.82;;;2.50;99.90;;;;;;4808263;29;20058;-77
2022/02/27 03:31:58;;;;;;;29.40;8.27;;;2.50;99.90;;;;;;4707090;30;20068;-76
2022/02/27 03:34:26;;;;;;;30.05;8.48;;;2.30;99.90;;;;;;4733924;30;20048;-76
2022/02/27 03:36:52;;;;;;;22.85;8.20;;;3.50;99.90;;;;;;4799955;29;20050;-76
2022/02/27 03:39:18;;;;;;;28.25;9.13;;;2.40;99.90;;;;;;4817615;29;20060;-76
2022/02/27 03:41:43;;;;;;;22.27;9.70;;;3.40;99.90;;;;;;4840921;29;20045;-76
2022/02/27 03:44:09;;;;;;;25.60;10.25;;;3.10;99.90;;;;;;4825798;29;20065;-76
2022/02/27 03:46:35;;;;;;;28.77;12.70;;;2.50;99.90;;;;;;4830305;29;20121;-76
2022/02/27 03:49:02;;;;;;;33.28;12.95;;;2.40;99.90;;;;;;4808611;29;20038;-76
2022/02/27 03:51:28;;;;;;;30.73;13.95;;;2.90;99.90;;;;;;4792492;29;20380;-76
2022/02/27 03:53:56;;;;;;;32.80;12.63;;;2.30;99.90;;;;;;4824697;29;20045;-77
2022/02/27 03:56:22;;;;;;;29.67;13.35;;;2.30;99.90;;;;;;4792233;29;20522;-77
2022/02/27 03:58:56;;;;;;;30.77;12.52;;;3.00;99.90;;;;;;4796239;29;20050;-77
2022/02/27 04:01:23;;;;;;;35.90;13.15;;;2.40;99.90;;;;;;4821064;29;20050;-77
2022/02/27 04:03:50;;;;;;;35.55;11.43;;;2.40;99.90;;;;;;4828538;29;20042;-77
2022/02/27 04:06:16;;;;;;;26.27;10.93;;;2.30;99.90;;;;;;4829260;29;20133;-77
2022/02/27 04:08:44;;;;;;;31.00;11.27;;;2.40;99.90;;;;;;4829337;29;20048;-77
2022/02/27 04:11:13;;;;;;;31.63;12.20;;;2.20;99.90;;;;;;4829293;29;20436;-77
2022/02/27 04:13:42;;;;;;;29.45;12.00;;;2.20;99.90;;;;;;4814071;29;20469;-77
2022/02/27 04:16:17;;;;;;;32.58;11.93;;;2.40;99.90;;;;;;4828428;29;20046;-77
2022/02/27 04:18:53;;;;;;;31.00;12.38;;;3.40;99.90;;;;;;4827128;29;20042;-77
2022/02/27 04:21:19;;;;;;;30.45;11.57;;;2.30;99.90;;;;;;4798389;29;20053;-77
2022/02/27 04:23:47;;;;;;;27.23;12.63;;;2.40;99.90;;;;;;4831178;29;20038;-77
2022/02/27 04:26:20;;;;;;;29.13;12.75;;;2.00;99.90;;;;;;4828713;29;20050;-77
2022/02/27 04:28:47;;;;;;;31.60;13.30;;;2.30;99.90;;;;;;4840866;29;20079;-77
2022/02/27 04:31:16;;;;;;;30.58;13.13;;;2.30;99.90;;;;;;4817983;29;20042;-77
2022/02/27 04:33:45;;;;;;;29.42;12.98;;;2.30;99.90;;;;;;4821422;29;20069;-78
2022/02/27 04:36:14;;;;;;;33.45;14.23;;;1.80;99.90;;;;;;4802919;29;20398;-78
2022/02/27 04:38:43;;;;;;;34.10;14.40;;;2.30;99.90;;;;;;4828395;29;20046;-78
2022/02/27 04:41:18;;;;;;;35.72;15.57;;;2.20;99.90;;;;;;4828485;29;20065;-78
2022/02/27 04:43:52;;;;;;;39.22;16.33;;;2.60;99.90;;;;;;4801006;29;20054;-77
2022/02/27 04:46:21;;;;;;;32.20;16.25;;;2.60;99.90;;;;;;4780408;29;20081;-77
2022/02/27 04:49:06;;;;;;;36.65;16.65;;;2.20;99.90;;;;;;4826225;29;20469;-77
2022/02/27 04:51:32;;;;;;;42.00;15.98;;;2.70;99.90;;;;;;4797641;29;20078;-77
2022/02/27 04:53:58;;;;;;;33.13;14.77;;;2.20;99.90;;;;;;4792902;29;20483;-77
2022/02/27 04:56:33;;;;;;;31.88;14.55;;;2.30;99.90;;;;;;4795772;29;20141;-77
2022/02/27 04:59:05;;;;;;;32.97;15.45;;;2.90;99.90;;;;;;4802660;29;20094;-77
2022/02/27 05:01:31;;;;;;;34.47;15.82;;;2.00;99.90;;;;;;4795126;29;20046;-76
2022/02/27 05:03:57;;;;;;;31.60;15.85;;;2.50;99.90;;;;;;4816134;29;20110;-76
2022/02/27 05:06:23;;;;;;;32.50;16.77;;;2.10;99.90;;;;;;4812593;29;20054;-76
2022/02/27 05:08:49;;;;;;;39.65;17.15;;;2.10;99.90;;;;;;4827295;29;20398;-76
2022/02/27 05:11:20;;;;;;;31.83;15.50;;;3.00;99.90;;;;;;4811636;29;20692;-76
2022/02/27 05:13:46;;;;;;;41.13;15.88;;;2.10;99.90;;;;;;4797731;29;20154;-76
2022/02/27 05:16:12;;;;;;;27.52;14.00;;;2.10;99.90;;;;;;4812819;29;20133;-76
2022/02/27 05:18:40;;;;;;;33.13;14.02;;;2.10;99.90;;;;;;4802564;29;20126;-77
2022/02/27 05:21:06;;;;;;;37.15;14.38;;;2.10;99.90;;;;;;4794873;29;20129;-76
2022/02/27 05:23:32;;;;;;;25.95;14.13;;;2.60;99.90;;;;;;4789136;29;20057;-77
2022/02/27 05:25:58;;;;;;;29.00;13.15;;;2.10;99.90;;;;;;4811212;29;20130;-76
2022/02/27 05:28:35;;;;;;;35.50;14.38;;;2.10;99.90;;;;;;4820157;29;20046;-76
2022/02/27 05:31:04;;;;;;;37.40;15.73;;;2.60;99.90;;;;;;4809732;29;20043;-76
2022/02/27 05:33:35;;;;;;;33.58;15.05;;;2.10;99.90;;;;;;4794894;29;20055;-76
2022/02/27 05:36:03;;;;;;;34.03;14.85;;;2.00;99.90;;;;;;4809761;29;20051;-76
2022/02/27 05:38:29;;;;;;;40.92;15.30;;;2.00;99.90;;;;;;4798625;29;20049;-76
2022/02/27 05:40:57;;;;;;;35.25;14.63;;;2.50;99.90;;;;;;4824617;29;20049;-76
2022/02/27 05:43:26;;;;;;;29.90;14.35;;;2.00;99.90;;;;;;4824910;29;20088;-76
2022/02/27 05:45:55;;;;;;;33.80;14.15;;;2.00;99.90;;;;;;4827007;29;20073;-76
2022/02/27 05:48:23;;;;;;;31.73;13.63;;;2.50;99.90;;;;;;4836317;29;20078;-77
2022/02/27 05:50:52;;;;;;;31.45;13.73;;;2.00;99.90;;;;;;4809533;29;20098;-77
2022/02/27 05:53:18;;;;;;;32.22;14.00;;;2.00;99.90;;;;;;4796537;29;20053;-76
2022/02/27 05:55:44;;;;;;;30.25;14.43;;;2.40;99.90;;;;;;4816333;29;20495;-76
2022/02/27 05:58:10;;;;;;;27.92;13.48;;;1.90;99.90;;;;;;4815999;29;20479;-76
2022/02/27 06:00:36;;;;;;;30.15;14.80;;;1.90;99.90;;;;;;4824050;29;20097;-76
2022/02/27 06:03:04;;;;;;;35.20;14.07;;;1.90;99.90;;;;;;4836919;29;20045;-76
2022/02/27 06:05:32;;;;;;;40.78;14.48;;;1.80;99.90;;;;;;4827188;29;20056;-76
2022/02/27 06:08:00;;;;;;;29.80;13.15;;;1.90;99.90;;;;;;4823352;29;20410;-77
2022/02/27 06:10:26;;;;;;;29.75;14.20;;;1.90;99.90;;;;;;4810753;29;20053;-77
2022/02/27 06:12:52;;;;;;;34.85;14.70;;;1.90;99.90;;;;;;4810509;29;20419;-76
2022/02/27 06:15:18;;;;;;;36.78;15.25;;;1.80;99.90;;;;;;4793833;29;20047;-77
2022/02/27 06:17:47;;;;;;;32.47;14.63;;;1.80;99.90;;;;;;4828968;29;20049;-76
2022/02/27 06:20:13;;;;;;;31.50;14.88;;;1.80;99.90;;;;;;4841669;29;20052;-76
2022/02/27 06:22:47;;;;;;;31.15;14.10;;;1.80;99.90;;;;;;4839219;29;20054;-76
2022/02/27 06:25:14;;;;;;;34.92;14.02;;;1.80;99.90;;;;;;4827233;29;20061;-77
2022/02/27 06:27:43;;;;;;;32.95;13.95;;;1.80;99.90;;;;;;4835433;29;20042;-76
2022/02/27 06:30:13;;;;;;;30.02;13.43;;;1.80;99.90;;;;;;4827007;29;20515;-76
2022/02/27 06:32:39;;;;;;;34.10;13.75;;;1.80;99.90;;;;;;4814693;29;20098;-76
2022/02/27 06:35:09;;;;;;;34.65;13.40;;;2.60;99.90;;;;;;4823412;29;20049;-76
2022/02/27 06:37:36;;;;;;;28.10;12.23;;;1.80;99.90;;;;;;4826909;29;20124;-76
2022/02/27 06:40:04;;;;;;;29.63;12.85;;;1.80;99.90;;;;;;4826786;29;20512;-76
2022/02/27 06:42:30;;;;;;;30.40;12.40;;;1.80;99.90;;;;;;4826944;29;20367;-75
2022/02/27 06:44:56;;;;;;;27.33;12.43;;;1.80;99.90;;;;;;4795508;29;20136;-77
2022/02/27 06:47:24;;;;;;;30.33;10.98;;;1.80;99.90;;;;;;4808886;29;20053;-77
2022/02/27 06:49:50;;;;;;;24.85;11.20;;;1.80;99.90;;;;;;4813019;29;20141;-76
2022/02/27 06:52:19;;;;;;;24.45;11.10;;;1.80;99.90;;;;;;4821999;29;20051;-76
2022/02/27 06:54:47;;;;;;;31.98;11.52;;;1.80;99.90;;;;;;4803510;29;20122;-75
2022/02/27 06:57:13;;;;;;;22.85;11.20;;;1.80;99.90;;;;;;4825754;29;20052;-81
2022/02/27 06:59:39;;;;;;;27.23;11.43;;;1.80;99.90;;;;;;4824490;29;20137;-79
2022/02/27 07:02:05;;;;;;;29.83;10.50;;;2.30;99.90;;;;;;4809377;29;20053;-79
2022/02/27 07:04:30;;;;;;;24.70;9.82;;;2.30;99.90;;;;;;4808974;29;20106;-80
2022/02/27 07:06:56;;;;;;;27.30;10.20;;;2.10;99.90;;;;;;4826853;29;20042;-80
2022/02/27 07:09:22;;;;;;;24.88;9.45;;;1.80;99.90;;;;;;4810685;29;20037;-75
2022/02/27 07:11:48;;;;;;;24.50;10.40;;;1.80;99.90;;;;;;4837814;29;20439;-76
2022/02/27 07:14:14;;;;;;;30.65;10.02;;;1.90;99.90;;;;;;4825684;29;20100;-76
2022/02/27 07:16:40;;;;;;;25.50;10.40;;;2.10;99.90;;;;;;4838655;29;20048;-75
2022/02/27 07:19:06;;;;;;;25.30;10.77;;;1.90;99.90;;;;;;4821530;29;20042;-75
2022/02/27 07:21:32;;;;;;;26.65;10.40;;;1.90;99.90;;;;;;4825127;29;20061;-75
2022/02/27 07:23:58;;;;;;;26.30;10.00;;;1.90;99.90;;;;;;4842047;29;20042;-75
2022/02/27 07:26:25;;;;;;;31.13;9.65;;;2.10;99.90;;;;;;4826637;29;20054;-79
2022/02/27 07:28:52;;;;;;;22.42;9.73;;;2.00;99.90;;;;;;4836386;29;20483;-74
2022/02/27 07:31:18;;;;;;;27.27;10.88;;;2.00;99.90;;;;;;4855377;29;20125;-72
2022/02/27 07:33:44;;;;;;;25.60;10.57;;;2.10;99.90;;;;;;4842016;29;20112;-72
2022/02/27 07:36:10;;;;;;;28.00;9.80;;;2.10;99.90;;;;;;4812822;29;20038;-74
2022/02/27 07:38:35;;;;;;;24.83;9.57;;;2.10;99.90;;;;;;4838728;29;20653;-75
2022/02/27 07:41:01;;;;;;;25.67;10.05;;;2.10;99.90;;;;;;4797764;29;20041;-73
2022/02/27 07:43:27;;;;;;;21.25;9.52;;;2.20;99.90;;;;;;4831756;29;20046;-74
2022/02/27 07:45:53;;;;;;;25.23;9.98;;;2.40;99.90;;;;;;4839496;29;20379;-75
2022/02/27 07:48:19;;;;;;;21.15;9.30;;;2.30;99.90;;;;;;4820290;29;20050;-75
2022/02/27 07:50:44;;;;;;;23.25;8.27;;;2.30;99.90;;;;;;4833804;29;20038;-72
2022/02/27 07:53:10;;;;;;;23.75;9.50;;;2.30;99.90;;;;;;4819680;29;20045;-74
2022/02/27 07:55:36;;;;;;;24.27;8.75;;;2.50;99.90;;;;;;4829561;29;20459;-74
2022/02/27 07:58:02;;;;;;;22.67;8.98;;;2.40;99.90;;;;;;4829410;29;20094;-74
2022/02/27 08:00:27;;;;;;;24.63;8.52;;;2.50;99.90;;;;;;4839899;29;20475;-74
2022/02/27 08:02:58;;;;;;;18.77;8.50;;;2.50;99.90;;;;;;4824184;29;20050;-74
2022/02/27 08:05:24;;;;;;;24.67;8.05;;;2.50;99.90;;;;;;4814289;29;20459;-76
2022/02/27 08:07:50;;;;;;;18.70;7.20;;;2.60;99.90;;;;;;4860450;29;20120;-73
2022/02/27 08:10:15;;;;;;;24.27;7.40;;;2.70;99.90;;;;;;4821913;29;20050;-75
2022/02/27 08:12:42;;;;;;;27.60;7.47;;;2.70;99.90;;;;;;4834463;29;20050;-72
2022/02/27 08:15:10;;;;;;;21.33;6.82;;;2.70;99.90;;;;;;4834607;29;20536;-72
2022/02/27 08:17:36;;;;;;;27.08;7.35;;;2.80;99.90;;;;;;4836447;29;20175;-72
2022/02/27 08:20:03;;;;;;;19.80;7.28;;;2.80;99.90;;;;;;4819920;29;20046;-72
2022/02/27 08:22:29;;;;;;;20.08;7.13;;;2.90;99.90;;;;;;4836895;29;20091;-72
2022/02/27 08:24:55;;;;;;;25.50;8.20;;;2.90;99.90;;;;;;4824642;29;20042;-71
2022/02/27 08:27:21;;;;;;;20.83;7.38;;;3.00;99.90;;;;;;4841650;29;20129;-74
2022/02/27 08:29:49;;;;;;;15.93;7.10;;;3.10;99.90;;;;;;4835133;29;20075;-75
2022/02/27 08:32:16;;;;;;;21.58;6.53;;;3.00;99.90;;;;;;4825596;29;20133;-75
2022/02/27 08:34:47;;;;;;;24.83;7.70;;;3.10;99.90;;;;;;4797267;29;20108;-76
2022/02/27 08:37:13;;;;;;;20.02;6.07;;;3.10;99.90;;;;;;4827470;29;20061;-76
2022/02/27 08:39:39;;;;;;;20.50;6.45;;;3.20;99.90;;;;;;4800373;29;20062;-76
2022/02/27 08:42:05;;;;;;;21.02;6.57;;;3.20;99.90;;;;;;4794863;29;20046;-74
2022/02/27 08:44:34;;;;;;;21.20;6.38;;;3.20;99.90;;;;;;4806418;29;20039;-73
2022/02/27 08:47:01;;;;;;;21.70;6.07;;;3.30;99.90;;;;;;4839528;29;20455;-73
2022/02/27 08:49:26;;;;;;;16.20;6.70;;;3.30;99.90;;;;;;4816285;29;20037;-72
2022/02/27 08:51:52;;;;;;;16.65;6.10;;;3.40;99.90;;;;;;4829298;29;20506;-73
2022/02/27 08:54:18;;;;;;;19.00;6.05;;;3.40;99.90;;;;;;4817829;29;20107;-73
2022/02/27 08:56:44;;;;;;;14.73;5.75;;;3.50;99.90;;;;;;4841005;29;20460;-73
2022/02/27 08:59:26;;;;;;;16.75;6.47;;;3.50;99.90;;;;;;4814730;29;20042;-73
2022/02/27 09:01:52;;;;;;;22.10;6.35;;;3.60;99.90;;;;;;4847181;29;20037;-73
2022/02/27 09:04:17;;;;;;;19.52;6.63;;;3.60;99.90;;;;;;4863129;29;20082;-73
2022/02/27 09:06:43;;;;;;;20.30;6.78;;;3.70;99.90;;;;;;4838831;29;20049;-74
2022/02/27 09:09:09;;;;;;;16.75;6.38;;;3.60;99.90;;;;;;4813394;29;20495;-73
2022/02/27 09:11:34;;;;;;;20.23;6.40;;;3.70;99.90;;;;;;4839870;29;20046;-73
2022/02/27 09:14:00;;;;;;;20.60;6.50;;;3.70;99.90;;;;;;4859270;29;20120;-74
2022/02/27 09:16:26;;;;;;;19.67;6.55;;;3.70;99.90;;;;;;4842136;29;20447;-73
2022/02/27 09:18:51;;;;;;;14.75;6.72;;;3.70;99.90;;;;;;4813126;29;20042;-73
2022/02/27 09:21:28;;;;;;;15.93;6.10;;;3.80;99.90;;;;;;4843997;29;20057;-73
2022/02/27 09:23:54;;;;;;;15.88;6.22;;;3.80;99.90;;;;;;4827997;29;20163;-73
2022/02/27 09:26:22;;;;;;;20.90;6.50;;;3.90;99.90;;;;;;4826608;29;20050;-74
2022/02/27 09:28:48;;;;;;;16.45;6.95;;;3.90;99.90;;;;;;4842600;29;20116;-71
2022/02/27 09:31:17;;;;;;;17.60;6.35;;;4.00;99.90;;;;;;4826176;29;20046;-72
2022/02/27 09:34:09;;;;;;;17.20;6.22;;;4.00;99.90;;;;;;4842738;29;20128;-74
2022/02/27 09:36:38;;;;;;;19.92;6.45;;;4.10;99.90;;;;;;4843165;29;20083;-74
2022/02/27 09:39:32;;;;;;;19.00;6.15;;;4.10;99.90;;;;;;4844543;29;20503;-74
2022/02/27 09:50:03;;;;;;;;;;;;;;;;;;;;;
2022/02/27 10:01:23;;;;;;;17.27;5.63;;;4.50;99.90;;;;;;4697770;30;20141;-75
2022/02/27 10:04:19;;;;;;;13.07;5.18;;;4.60;99.90;;;;;;4695016;30;20638;-74
2022/02/27 10:06:49;;;;;;;16.67;5.95;;;4.60;99.90;;;;;;4684769;30;20072;-73
2022/02/27 10:09:23;;;;;;;17.13;5.50;;;4.70;99.90;;;;;;4723514;30;20056;-72
2022/02/27 10:11:52;;;;;;;13.30;5.18;;;4.70;99.90;;;;;;4736467;30;20063;-73
2022/02/27 10:14:29;;;;;;;16.40;5.80;;;4.80;99.90;;;;;;4740090;30;20053;-73
2022/02/27 10:17:05;;;;;;;17.83;5.82;;;4.80;99.90;;;;;;4793247;29;20062;-73
2022/02/27 10:19:36;;;;;;;17.77;5.70;;;4.90;99.90;;;;;;4787412;29;20100;-72
2022/02/27 10:22:06;;;;;;;14.50;5.85;;;4.90;99.90;;;;;;4784791;29;20133;-72
2022/02/27 10:24:35;;;;;;;12.52;5.60;;;5.00;99.90;;;;;;4804506;29;20121;-72
2022/02/27 10:27:10;;;;;;;15.82;5.30;;;5.10;99.90;;;;;;4819060;29;20061;-72
2022/02/27 10:29:36;;;;;;;13.23;4.60;;;5.10;99.90;;;;;;4831849;29;20045;-72
2022/02/27 10:32:04;;;;;;;18.10;5.53;;;5.10;99.90;;;;;;4805340;29;20156;-72
2022/02/27 10:34:34;;;;;;;16.58;5.65;;;5.10;99.90;;;;;;4835273;29;20061;-73
2022/02/27 10:37:09;;;;;;;15.70;4.80;;;5.10;99.90;;;;;;4842894;29;20413;-73
2022/02/27 10:39:42;;;;;;;12.52;4.93;;;5.20;99.90;;;;;;4840605;29;20383;-73
2022/02/27 10:42:12;;;;;;;16.25;4.55;;;5.20;99.90;;;;;;4830100;29;20057;-73
2022/02/27 10:44:40;;;;;;;10.43;4.47;;;5.30;99.90;;;;;;4841218;29;20048;-73
2022/02/27 10:47:15;;;;;;;13.85;4.72;;;5.30;99.90;;;;;;4824155;29;20509;-73
2022/02/27 10:49:41;;;;;;;13.57;4.03;;;5.30;99.90;;;;;;4826271;29;20046;-73
2022/02/27 10:52:11;;;;;;;12.20;5.00;;;5.30;99.90;;;;;;4833569;29;20042;-73
2022/02/27 10:54:42;;;;;;;9.45;5.15;;;5.50;99.90;;;;;;4793203;29;20106;-73
2022/02/27 10:57:11;;;;;;;10.23;4.82;;;5.40;99.90;;;;;;4832625;29;20065;-73
2022/02/27 10:59:39;;;;;;;14.88;4.45;;;5.50;99.90;;;;;;4826630;29;20456;-72
2022/02/27 11:02:09;;;;;;;15.45;4.95;;;5.50;99.90;;;;;;4841550;29;20086;-73
2022/02/27 11:04:35;;;;;;;16.48;5.00;;;5.50;99.90;;;;;;4842830;29;20140;-73
2022/02/27 11:07:03;;;;;;;11.98;4.55;;;5.70;99.90;;;;;;4827986;29;20487;-73
2022/02/27 11:09:30;;;;;;;15.00;4.60;;;5.60;99.90;;;;;;4777874;29;20054;-73
2022/02/27 11:11:56;;;;;;;13.00;4.38;;;5.60;99.90;;;;;;4836891;29;20053;-73
2022/02/27 11:14:23;;;;;;;12.02;4.30;;;5.70;99.90;;;;;;4826112;29;20061;-73
2022/02/27 11:16:50;;;;;;;13.98;4.80;;;5.70;99.90;;;;;;4826048;29;20042;-73
2022/02/27 11:19:19;;;;;;;18.73;5.15;;;5.70;99.90;;;;;;4825061;29;20052;-73
2022/02/27 11:21:44;;;;;;;14.15;4.40;;;5.70;99.90;;;;;;4826277;29;20046;-73
2022/02/27 11:24:14;;;;;;;10.30;4.72;;;5.70;99.90;;;;;;4811209;29;20056;-73
2022/02/27 11:26:40;;;;;;;12.00;5.18;;;5.70;99.90;;;;;;4811086;29;20080;-73
2022/02/27 11:29:10;;;;;;;15.15;4.72;;;5.70;99.90;;;;;;4810362;29;20050;-73
2022/02/27 11:31:39;;;;;;;15.48;5.28;;;5.80;99.90;;;;;;4841924;29;20053;-73
2022/02/27 11:34:16;;;;;;;15.95;5.25;;;5.80;99.90;;;;;;4842374;29;20476;-73
2022/02/27 11:36:45;;;;;;;12.38;4.90;;;5.80;99.90;;;;;;4817626;29;20046;-73
2022/02/27 11:40:28;;;;;;;15.45;5.03;;;5.80;99.90;;;;;;4840994;29;20127;-72
2022/02/27 11:41:59;;;;;;;12.05;4.97;;;5.90;99.90;;;;;;4840464;29;20088;-73
2022/02/27 11:44:36;;;;;;;12.52;4.57;;;5.90;99.90;;;;;;4825947;29;20089;-73
2022/02/27 11:47:07;;;;;;;13.95;4.78;;;6.00;99.90;;;;;;4824776;29;20129;-73
2022/02/27 11:49:34;;;;;;;14.60;5.00;;;6.00;99.90;;;;;;4823312;29;20049;-73
2022/02/27 11:52:03;;;;;;;15.55;5.00;;;6.00;99.90;;;;;;4824827;29;20077;-73
2022/02/27 11:54:55;;;;;;;14.18;5.10;;;6.40;99.90;;;;;;4824098;29;20125;-73
2022/02/27 11:57:28;;;;;;;14.60;5.10;;;6.10;99.90;;;;;;4832998;29;20064;-73
2022/02/27 12:00:09;;;;;;;13.23;4.72;;;6.10;99.90;;;;;;4826014;29;20444;-73
2022/02/27 12:02:45;;;;;;;10.27;4.95;;;6.10;99.90;;;;;;4836941;29;20046;-73
2022/02/27 12:05:14;;;;;;;12.43;4.50;;;6.10;99.90;;;;;;4842092;29;20038;-73
2022/02/27 12:07:58;;;;;;;15.77;4.78;;;6.20;99.90;;;;;;4841819;29;20034;-73
2022/02/27 12:10:49;;;;;;;13.98;5.25;;;6.20;99.90;;;;;;4804564;29;20046;-73
2022/02/27 12:13:18;;;;;;;12.57;5.07;;;6.20;99.90;;;;;;4810245;29;20053;-73
2022/02/27 12:15:47;;;;;;;15.95;4.75;;;6.90;99.90;;;;;;4824571;29;20507;-73
2022/02/27 12:18:16;;;;;;;15.60;4.72;;;6.30;99.90;;;;;;4842451;29;20453;-73
2022/02/27 12:20:50;;;;;;;14.05;4.88;;;6.40;99.90;;;;;;4822602;29;20046;-73
2022/02/27 12:23:30;;;;;;;15.80;5.35;;;6.30;99.90;;;;;;4796029;29;20046;-73
2022/02/27 12:25:57;;;;;;;13.80;4.95;;;6.50;99.90;;;;;;4826993;29;20086;-73
2022/02/27 12:28:47;;;;;;;12.65;5.47;;;6.40;99.90;;;;;;4826830;29;20106;-73
2022/02/27 12:31:24;;;;;;;14.07;5.18;;;6.40;99.90;;;;;;4795549;29;20051;-73
2022/02/27 12:33:50;;;;;;;15.05;4.82;;;6.40;99.90;;;;;;4795991;29;20050;-75
2022/02/27 12:36:36;;;;;;;11.02;4.63;;;6.40;99.90;;;;;;4838250;29;20106;-75
2022/02/27 12:39:11;;;;;;;10.57;4.38;;;6.50;99.90;;;;;;4828842;29;20085;-73
2022/02/27 12:41:47;;;;;;;16.02;5.35;;;6.50;99.90;;;;;;4845201;29;20038;-72
2022/02/27 12:44:27;;;;;;;9.93;4.72;;;6.50;99.90;;;;;;4827418;29;20050;-72
2022/02/27 12:46:56;;;;;;;11.18;4.78;;;6.50;99.90;;;;;;4813180;29;20517;-72
2022/02/27 12:52:17;;;;;;;12.65;4.90;;;6.50;99.90;;;;;;4830315;29;20085;-72
2022/02/27 12:54:48;;;;;;;9.90;4.10;;;6.70;99.90;;;;;;4844399;29;20054;-72
2022/02/27 12:57:15;;;;;;;11.00;4.03;;;6.50;99.90;;;;;;4811680;29;20434;-72
2022/02/27 12:59:43;;;;;;;13.18;4.63;;;6.60;99.90;;;;;;4828314;29;20052;-73
2022/02/27 13:02:22;;;;;;;13.25;4.32;;;6.60;99.90;;;;;;4844535;29;20087;-73
2022/02/27 13:04:48;;;;;;;12.55;4.22;;;6.50;99.90;;;;;;4810099;29;20050;-73
2022/02/27 13:07:16;;;;;;;13.75;4.13;;;6.60;99.90;;;;;;4824974;29;20153;-73
2022/02/27 13:09:45;;;;;;;12.18;4.00;;;6.60;99.90;;;;;;4810122;29;20050;-73
2022/02/27 13:12:25;;;;;;;11.15;3.75;;;6.60;99.90;;;;;;4832913;29;20142;-72
2022/02/27 13:14:59;;;;;;;8.75;3.90;;;6.60;99.90;;;;;;4843632;29;20098;-75
2022/02/27 13:17:30;;;;;;;9.23;3.70;;;6.60;99.90;;;;;;4841662;29;20098;-73
2022/02/27 13:19:58;;;;;;;10.48;3.72;;;7.00;99.90;;;;;;4828450;29;20038;-73
2022/02/27 13:22:24;;;;;;;9.05;3.80;;;6.80;99.90;;;;;;4797683;29;20049;-72
2022/02/27 13:24:50;;;;;;;9.27;4.00;;;6.70;99.90;;;;;;4809612;29;20054;-72
2022/02/27 13:27:24;;;;;;;11.20;4.13;;;6.70;99.90;;;;;;4820577;29;20049;-73
2022/02/27 13:29:53;;;;;;;12.82;4.60;;;6.70;99.90;;;;;;4845111;29;20045;-83
2022/02/27 13:32:34;;;;;;;9.23;4.05;;;6.90;99.90;;;;;;4860166;29;20089;-78
2022/02/27 13:35:16;;;;;;;9.52;4.15;;;6.70;99.90;;;;;;4827440;29;20046;-77
2022/02/27 13:37:51;;;;;;;13.23;4.43;;;6.80;99.90;;;;;;4825105;29;20057;-79
2022/02/27 13:40:20;;;;;;;12.20;4.57;;;6.80;99.90;;;;;;4838091;29;20045;-77
2022/02/27 13:42:47;;;;;;;10.90;4.65;;;6.80;99.90;;;;;;4811307;29;20496;-78
2022/02/27 13:45:46;;;;;;;12.40;4.13;;;6.80;99.90;;;;;;4809713;29;20080;-77
2022/02/27 13:48:14;;;;;;;12.00;4.57;;;6.80;99.90;;;;;;4825221;29;20499;-79
2022/02/27 13:50:45;;;;;;;8.57;4.25;;;6.90;99.90;;;;;;4805204;29;20058;-80
2022/02/27 13:53:16;;;;;;;7.20;3.70;;;7.10;99.90;;;;;;4830927;29;20041;-78
2022/02/27 13:55:46;;;;;;;8.30;3.50;;;6.90;99.90;;;;;;4827211;29;20065;-78
2022/02/27 13:58:18;;;;;;;6.13;3.38;;;6.90;99.90;;;;;;4827404;29;20489;-77
2022/02/27 14:00:50;;;;;;;8.25;3.70;;;6.90;99.90;;;;;;4827202;29;20042;-77